createdAt,value
2022-08-17T00:02:09.867Z,17.60
2022-08-17T00:04:51.193Z,17.63
2022-08-17T00:07:17.623Z,17.44
2022-08-17T00:09:44.147Z,17.37
2022-08-17T00:12:44.420Z,17.39
2022-08-17T00:14:57.305Z,17.39
2022-08-17T00:17:23.951Z,17.42
2022-08-17T00:19:50.969Z,17.31
2022-08-17T00:22:33.912Z,17.36
2022-08-17T00:25:05.279Z,17.23
2022-08-17T00:27:31.730Z,17.29
2022-08-17T00:29:58.119Z,17.35
2022-08-17T00:33:12.481Z,17.26
2022-08-17T00:35:15.216Z,17.35
2022-08-17T00:37:42.081Z,17.31
2022-08-17T00:40:11.563Z,17.30
2022-08-17T00:42:38.583Z,17.24
2022-08-17T00:45:08.270Z,17.19
2022-08-17T00:47:36.220Z,17.12
2022-08-17T00:50:05.145Z,17.12
2022-08-17T00:52:37.322Z,17.05
2022-08-17T00:55:05.179Z,16.90
2022-08-17T00:57:39.311Z,16.86
2022-08-17T01:00:12.256Z,16.89
2022-08-17T01:02:43.809Z,16.79
2022-08-17T01:05:15.243Z,16.77
2022-08-17T01:07:42.924Z,16.84
2022-08-17T01:10:59.824Z,16.92
2022-08-17T01:13:02.661Z,16.94
2022-08-17T01:15:33.814Z,16.77
2022-08-17T01:18:00.579Z,16.88
2022-08-17T01:20:27.342Z,16.90
2022-08-17T01:22:54.192Z,16.83
2022-08-17T01:25:21.520Z,16.76
2022-08-17T01:27:49.120Z,16.78
2022-08-17T01:30:56.510Z,16.74
2022-08-17T01:33:04.320Z,16.71
2022-08-17T01:35:31.472Z,16.63
2022-08-17T01:37:57.891Z,16.60
2022-08-17T01:40:36.315Z,16.57
2022-08-17T01:43:25.280Z,16.58
2022-08-17T01:46:02.385Z,16.53
2022-08-17T01:48:35.690Z,16.63
2022-08-17T01:51:02.866Z,16.56
2022-08-17T01:53:38.143Z,16.57
2022-08-17T01:56:14.495Z,16.62
2022-08-17T01:58:43.254Z,16.59
2022-08-17T02:01:11.066Z,16.52
2022-08-17T02:03:38.641Z,16.41
2022-08-17T02:06:06.397Z,16.42
2022-08-17T02:09:03.111Z,16.22
2022-08-17T02:11:30.982Z,16.21
2022-08-17T02:14:03.092Z,16.24
2022-08-17T02:16:37.872Z,16.20
2022-08-17T02:19:12.451Z,16.29
2022-08-17T02:21:41.252Z,16.23
2022-08-17T02:24:11.720Z,16.21
2022-08-17T02:26:38.426Z,16.18
2022-08-17T02:29:05.343Z,16.19
2022-08-17T02:31:32.023Z,16.17
2022-08-17T02:34:03.389Z,16.13
2022-08-17T02:36:31.255Z,16.13
2022-08-17T02:38:58.590Z,16.13
2022-08-17T02:41:25.117Z,16.16
2022-08-17T02:43:51.595Z,16.14
2022-08-17T02:46:19.519Z,16.08
2022-08-17T02:48:46.078Z,15.97
2022-08-17T02:51:12.535Z,15.94
2022-08-17T02:53:38.963Z,15.94
2022-08-17T02:56:05.622Z,15.92
2022-08-17T02:58:35.243Z,15.91
2022-08-17T03:01:07.005Z,15.83
2022-08-17T03:03:35.200Z,15.92
2022-08-17T03:06:02.059Z,15.94
2022-08-17T03:08:29.070Z,15.96
2022-08-17T03:10:56.043Z,16.00
2022-08-17T03:13:22.647Z,15.98
2022-08-17T03:15:49.356Z,16.01
2022-08-17T03:18:25.459Z,15.97
2022-08-17T03:20:57.879Z,15.84
2022-08-17T03:23:26.136Z,15.90
2022-08-17T03:25:54.471Z,15.79
2022-08-17T03:28:21.839Z,15.82
2022-08-17T03:30:48.876Z,15.95
2022-08-17T03:33:16.194Z,15.84
2022-08-17T03:35:43.423Z,15.80
2022-08-17T03:38:12.190Z,15.81
2022-08-17T03:40:56.970Z,15.76
2022-08-17T03:43:29.064Z,15.69
2022-08-17T03:46:28.293Z,15.58
2022-08-17T03:49:19.659Z,15.49
2022-08-17T03:52:04.558Z,15.44
2022-08-17T03:54:49.664Z,15.48
2022-08-17T03:57:16.618Z,15.30
2022-08-17T03:59:45.127Z,15.31
2022-08-17T04:02:17.517Z,15.44
2022-08-17T04:04:43.952Z,15.25
2022-08-17T04:07:10.793Z,15.37
2022-08-17T04:09:37.266Z,15.47
2022-08-17T04:12:05.270Z,15.45
2022-08-17T04:14:36.686Z,15.48
2022-08-17T04:17:20.071Z,15.44
2022-08-17T04:19:46.606Z,15.48
2022-08-17T04:22:33.005Z,15.53
2022-08-17T04:25:00.143Z,15.45
2022-08-17T04:27:27.206Z,15.45
2022-08-17T04:29:55.656Z,15.45
2022-08-17T04:32:59.307Z,15.49
2022-08-17T04:35:09.997Z,15.36
2022-08-17T04:37:36.435Z,15.43
2022-08-17T04:40:22.924Z,15.45
2022-08-17T04:43:05.575Z,15.47
2022-08-17T04:45:32.720Z,15.51
2022-08-17T04:48:00.278Z,15.67
2022-08-17T04:50:27.086Z,15.60
2022-08-17T04:52:53.526Z,15.77
2022-08-17T04:55:20.102Z,15.89
2022-08-17T04:57:46.514Z,15.92
2022-08-17T05:00:13.360Z,15.88
2022-08-17T05:02:50.048Z,15.74
2022-08-17T05:05:21.274Z,15.72
2022-08-17T05:07:48.176Z,15.93
2022-08-17T05:10:14.656Z,15.89
2022-08-17T05:12:41.061Z,15.95
2022-08-17T05:15:12.872Z,16.00
2022-08-17T05:17:39.262Z,15.91
2022-08-17T05:20:06.224Z,16.14
2022-08-17T05:22:32.631Z,16.35
2022-08-17T05:24:59.102Z,16.37
2022-08-17T05:27:29.295Z,16.34
2022-08-17T05:30:02.349Z,16.45
2022-08-17T05:32:38.257Z,16.62
2022-08-17T05:35:07.223Z,16.71
2022-08-17T05:37:33.860Z,16.77
2022-08-17T05:40:00.388Z,16.83
2022-08-17T05:42:27.124Z,16.99
2022-08-17T05:44:57.656Z,17.12
2022-08-17T05:47:26.151Z,17.47
2022-08-17T05:49:53.854Z,17.60
2022-08-17T05:52:49.511Z,17.69
2022-08-17T05:55:29.536Z,17.78
2022-08-17T05:58:18.164Z,18.05
2022-08-17T06:00:59.630Z,18.35
2022-08-17T06:03:42.996Z,18.62
2022-08-17T06:06:15.517Z,18.80
2022-08-17T06:08:59.584Z,19.19
2022-08-17T06:11:43.580Z,20.15
2022-08-17T06:14:16.073Z,20.98
2022-08-17T06:16:46.272Z,21.39
2022-08-17T06:19:33.692Z,21.07
2022-08-17T06:22:02.730Z,21.62
2022-08-17T06:24:29.084Z,21.38
2022-08-17T06:27:01.676Z,21.91
2022-08-17T06:29:30.919Z,22.13
2022-08-17T06:31:57.644Z,22.78
2022-08-17T06:34:24.302Z,22.71
2022-08-17T06:37:09.976Z,22.97
2022-08-17T06:39:54.240Z,23.59
2022-08-17T06:43:04.031Z,23.88
2022-08-17T06:45:49.554Z,23.39
2022-08-17T06:48:33.540Z,24.34
2022-08-17T06:51:10.560Z,24.23
2022-08-17T06:53:48.298Z,24.56
2022-08-17T06:56:27.016Z,25.25
2022-08-17T06:59:18.634Z,25.10
2022-08-17T07:01:49.272Z,24.60
2022-08-17T07:04:18.270Z,25.86
2022-08-17T07:06:59.482Z,25.21
2022-08-17T07:09:25.972Z,26.43
2022-08-17T07:11:57.686Z,25.62
2022-08-17T07:14:30.320Z,26.42
2022-08-17T07:16:58.501Z,25.68
2022-08-17T07:19:31.638Z,25.09
2022-08-17T07:22:27.965Z,26.63
2022-08-17T07:25:08.082Z,24.71
2022-08-17T07:27:51.189Z,25.06
2022-08-17T07:30:23.755Z,27.22
2022-08-17T07:32:53.835Z,26.79
2022-08-17T07:35:37.690Z,25.77
2022-08-17T07:38:24.708Z,28.17
2022-08-17T07:41:01.870Z,29.76
2022-08-17T07:43:52.612Z,29.18
2022-08-17T07:46:40.751Z,28.00
2022-08-17T07:49:10.385Z,29.69
2022-08-17T07:51:45.500Z,30.52
2022-08-17T07:54:15.101Z,30.25
2022-08-17T07:57:03.471Z,29.30
2022-08-17T07:59:39.141Z,29.32
2022-08-17T08:02:31.117Z,29.57
2022-08-17T08:05:12.846Z,29.42
2022-08-17T08:07:51.102Z,30.33
2022-08-17T08:10:32.858Z,30.95
2022-08-17T08:13:10.623Z,31.06
2022-08-17T08:15:53.755Z,30.85
2022-08-17T08:18:53.313Z,30.64
2022-08-17T08:21:29.397Z,32.05
2022-08-17T08:24:09.781Z,32.64
2022-08-17T08:26:58.064Z,31.83
2022-08-17T08:29:29.353Z,31.49
2022-08-17T08:32:07.915Z,34.07
2022-08-17T08:35:09.538Z,33.13
2022-08-17T08:37:52.242Z,34.32
2022-08-17T08:40:43.195Z,35.31
2022-08-17T08:43:47.380Z,34.37
2022-08-17T08:46:35.372Z,34.52
2022-08-17T08:50:02.800Z,34.03
2022-08-17T08:52:53.650Z,34.69
2022-08-17T08:55:41.031Z,35.93
2022-08-17T08:58:31.616Z,34.27
2022-08-17T09:01:20.946Z,34.38
2022-08-17T09:04:21.385Z,35.96
2022-08-17T09:07:15.092Z,36.51
2022-08-17T09:09:59.352Z,34.54
2022-08-17T09:12:43.984Z,34.48
2022-08-17T09:15:18.221Z,34.13
2022-08-17T09:19:00.795Z,35.37
2022-08-17T09:21:28.649Z,34.01
2022-08-17T09:24:16.070Z,36.14
2022-08-17T09:27:11.411Z,34.34
2022-08-17T09:29:44.403Z,35.37
2022-08-17T09:32:52.022Z,34.93
2022-08-17T09:35:25.303Z,34.35
2022-08-17T09:38:29.208Z,35.30
2022-08-17T09:41:07.459Z,37.01
2022-08-17T09:43:49.110Z,38.24
2022-08-17T09:46:25.015Z,38.67
2022-08-17T09:48:57.453Z,36.21
2022-08-17T09:51:40.103Z,36.85
2022-08-17T09:54:38.148Z,34.43
2022-08-17T09:57:32.194Z,37.41
2022-08-17T10:00:28.452Z,38.33
2022-08-17T10:03:22.306Z,37.76
2022-08-17T10:06:13.313Z,37.71
2022-08-17T10:08:49.545Z,36.04
2022-08-17T10:11:19.259Z,37.55
2022-08-17T10:13:55.972Z,38.03
2022-08-17T10:16:40.781Z,37.61
2022-08-17T10:19:18.597Z,39.96
2022-08-17T10:22:32.586Z,36.26
2022-08-17T10:25:23.154Z,35.60
2022-08-17T10:27:59.737Z,34.97
2022-08-17T10:30:31.511Z,35.24
2022-08-17T10:33:02.757Z,36.39
2022-08-17T10:35:29.200Z,37.89
2022-08-17T10:38:12.042Z,36.06
2022-08-17T10:40:51.706Z,35.14
2022-08-17T10:43:27.252Z,35.83
2022-08-17T10:46:30.496Z,38.72
2022-08-17T10:49:18.647Z,36.20
2022-08-17T10:51:47.958Z,37.80
2022-08-17T10:54:35.165Z,38.74
2022-08-17T10:57:02.513Z,37.92
2022-08-17T10:59:35.003Z,38.48
2022-08-17T11:02:04.466Z,39.61
2022-08-17T11:05:18.030Z,38.96
2022-08-17T11:08:08.016Z,38.26
2022-08-17T11:11:07.023Z,38.61
2022-08-17T11:13:48.701Z,36.48
2022-08-17T11:16:52.394Z,36.67
2022-08-17T11:19:28.181Z,36.50
2022-08-17T11:22:16.410Z,35.08
2022-08-17T11:24:47.915Z,36.97
2022-08-17T11:27:27.304Z,38.02
2022-08-17T11:30:04.848Z,37.09
2022-08-17T11:32:47.765Z,37.68
2022-08-17T11:35:22.249Z,38.06
2022-08-17T11:38:15.919Z,37.41
2022-08-17T11:40:59.696Z,36.23
2022-08-17T11:43:59.243Z,35.67
2022-08-17T11:47:00.547Z,36.28
2022-08-17T11:50:17.079Z,35.43
2022-08-17T11:52:46.100Z,35.24
2022-08-17T11:55:38.520Z,34.42
2022-08-17T11:58:29.769Z,34.42
2022-08-17T12:00:59.293Z,34.11
2022-08-17T12:03:31.987Z,34.30
2022-08-17T12:06:30.662Z,34.39
2022-08-17T12:09:09.330Z,34.68
2022-08-17T12:12:11.787Z,34.36
2022-08-17T12:17:41.550Z,36.53
2022-08-17T12:20:24.357Z,35.80
2022-08-17T12:22:57.782Z,36.90
2022-08-17T12:25:35.906Z,34.75
2022-08-17T12:28:06.688Z,34.69
2022-08-17T12:30:34.967Z,33.53
2022-08-17T12:33:01.563Z,33.66
2022-08-17T12:35:36.755Z,32.38
2022-08-17T12:38:26.918Z,32.97
2022-08-17T12:40:58.334Z,33.40
2022-08-17T12:43:31.194Z,34.08
2022-08-17T12:46:01.251Z,33.99
2022-08-17T12:48:55.050Z,33.13
2022-08-17T12:51:27.580Z,32.85
2022-08-17T12:53:55.460Z,32.80
2022-08-17T12:56:22.220Z,32.70
2022-08-17T12:58:54.181Z,32.65
2022-08-17T13:01:23.345Z,31.94
2022-08-17T13:03:55.106Z,31.67
2022-08-17T13:06:34.992Z,31.67
2022-08-17T13:09:24.175Z,31.90
2022-08-17T13:12:02.701Z,31.83
2022-08-17T13:14:33.363Z,31.44
2022-08-17T13:17:02.257Z,31.08
2022-08-17T13:19:40.939Z,30.76
2022-08-17T13:22:11.600Z,30.65
2022-08-17T13:24:38.743Z,29.93
2022-08-17T13:27:09.605Z,29.71
2022-08-17T13:29:51.532Z,29.39
2022-08-17T13:32:44.023Z,30.03
2022-08-17T13:35:38.979Z,29.83
2022-08-17T13:38:16.315Z,29.50
2022-08-17T13:40:50.702Z,29.32
2022-08-17T13:43:48.469Z,29.37
2022-08-17T13:46:20.974Z,29.50
2022-08-17T13:49:10.293Z,29.21
2022-08-17T13:51:43.887Z,29.54
2022-08-17T13:54:33.402Z,29.49
2022-08-17T13:57:12.135Z,29.20
2022-08-17T13:59:54.945Z,29.33
2022-08-17T14:02:28.047Z,29.59
2022-08-17T14:04:55.808Z,29.82
2022-08-17T14:07:28.607Z,29.71
2022-08-17T14:10:02.267Z,29.77
2022-08-17T14:12:31.831Z,29.73
2022-08-17T14:14:59.436Z,29.40
2022-08-17T14:17:28.891Z,29.29
2022-08-17T14:19:55.439Z,29.33
2022-08-17T14:22:28.521Z,29.53
2022-08-17T14:24:56.841Z,29.28
2022-08-17T14:27:25.524Z,29.44
2022-08-17T14:29:53.211Z,29.36
2022-08-17T14:32:26.761Z,29.52
2022-08-17T14:34:56.584Z,29.18
2022-08-17T14:37:26.286Z,29.45
2022-08-17T14:39:57.424Z,29.31
2022-08-17T14:42:26.245Z,29.12
2022-08-17T14:44:54.087Z,29.15
2022-08-17T14:47:20.558Z,28.95
2022-08-17T14:49:51.054Z,28.97
2022-08-17T14:52:23.124Z,28.96
2022-08-17T14:54:51.355Z,28.84
2022-08-17T14:57:33.959Z,28.63
2022-08-17T15:00:02.100Z,28.34
2022-08-17T15:02:30.507Z,28.43
2022-08-17T15:05:05.254Z,28.33
2022-08-17T15:07:31.932Z,28.28
2022-08-17T15:10:01.447Z,28.19
2022-08-17T15:12:33.190Z,28.36
2022-08-17T15:15:02.079Z,28.20
2022-08-17T15:17:44.353Z,28.49
2022-08-17T15:20:18.242Z,28.75
2022-08-17T15:22:46.810Z,28.76
2022-08-17T15:25:13.804Z,28.91
2022-08-17T15:27:40.481Z,28.94
2022-08-17T15:30:08.536Z,28.76
2022-08-17T15:32:39.222Z,28.76
2022-08-17T15:35:08.888Z,28.78
2022-08-17T15:37:36.362Z,28.76
2022-08-17T15:40:04.094Z,28.95
2022-08-17T15:42:30.581Z,28.88
2022-08-17T15:44:57.445Z,28.88
2022-08-17T15:47:24.461Z,28.55
2022-08-17T15:49:50.925Z,28.55
2022-08-17T15:52:20.332Z,28.93
2022-08-17T15:54:58.776Z,28.98
2022-08-17T15:57:26.191Z,28.76
2022-08-17T15:59:58.641Z,29.04
2022-08-17T16:03:46.298Z,29.19
2022-08-17T16:05:24.956Z,28.99
2022-08-17T16:07:52.612Z,28.93
2022-08-17T16:10:19.694Z,28.87
2022-08-17T16:12:47.977Z,28.91
2022-08-17T16:15:15.463Z,28.72
2022-08-17T16:17:42.461Z,28.82
2022-08-17T16:20:20.357Z,28.86
2022-08-17T16:22:49.611Z,29.04
2022-08-17T16:25:23.230Z,29.19
2022-08-17T16:28:09.927Z,29.11
2022-08-17T16:30:37.312Z,28.94
2022-08-17T16:33:05.463Z,29.03
2022-08-17T16:35:31.894Z,28.99
2022-08-17T16:37:58.790Z,28.85
2022-08-17T16:40:27.704Z,28.66
2022-08-17T16:42:55.232Z,28.53
2022-08-17T16:45:27.592Z,28.98
2022-08-17T16:47:54.823Z,29.03
2022-08-17T16:50:23.210Z,28.63
2022-08-17T16:52:50.665Z,28.67
2022-08-17T16:55:19.903Z,28.80
2022-08-17T16:57:48.564Z,28.79
2022-08-17T17:00:17.867Z,28.85
2022-08-17T17:02:47.233Z,28.93
2022-08-17T17:05:32.504Z,28.97
2022-08-17T17:08:12.578Z,28.67
2022-08-17T17:10:44.387Z,28.61
2022-08-17T17:13:25.099Z,28.54
2022-08-17T17:15:59.661Z,28.63
2022-08-17T17:18:47.504Z,28.48
2022-08-17T17:21:19.819Z,28.67
2022-08-17T17:24:03.919Z,28.52
2022-08-17T17:26:53.861Z,28.45
2022-08-17T17:29:48.483Z,28.56
2022-08-17T17:32:21.504Z,28.31
2022-08-17T17:34:53.704Z,28.45
2022-08-17T17:37:26.138Z,28.35
2022-08-17T17:39:58.701Z,28.31
2022-08-17T17:42:31.291Z,28.32
2022-08-17T17:45:25.924Z,28.27
2022-08-17T17:47:53.354Z,28.31
2022-08-17T17:50:26.328Z,28.19
2022-08-17T17:53:07.542Z,28.25
2022-08-17T17:56:19.664Z,28.26
2022-08-17T17:59:32.781Z,28.19
2022-08-17T18:02:52.140Z,28.20
2022-08-17T18:05:37.070Z,28.07
2022-08-17T18:08:32.170Z,28.03
2022-08-17T18:11:06.424Z,27.92
2022-08-17T18:13:58.169Z,27.77
2022-08-17T18:16:27.070Z,27.57
2022-08-17T18:18:57.741Z,27.61
2022-08-17T18:21:32.174Z,27.26
2022-08-17T18:24:00.592Z,26.88
2022-08-17T18:26:33.200Z,26.63
2022-08-17T18:29:42.711Z,26.50
2022-08-17T18:32:38.424Z,26.36
2022-08-17T18:35:10.846Z,26.15
2022-08-17T18:37:52.776Z,26.03
2022-08-17T18:40:19.590Z,25.81
2022-08-17T18:43:04.389Z,25.48
2022-08-17T18:45:38.107Z,25.25
2022-08-17T18:48:06.658Z,25.00
2022-08-17T18:50:41.399Z,24.74
2022-08-17T18:53:35.207Z,24.80
2022-08-17T18:56:27.964Z,24.47
2022-08-17T18:59:09.805Z,24.41
2022-08-17T19:01:58.200Z,24.27
2022-08-17T19:04:28.288Z,24.16
2022-08-17T19:07:09.506Z,24.06
2022-08-17T19:09:43.055Z,23.99
2022-08-17T19:12:27.007Z,23.87
2022-08-17T19:14:56.931Z,23.78
2022-08-17T19:17:44.000Z,23.78
2022-08-17T19:20:22.629Z,23.73
2022-08-17T19:23:29.302Z,23.51
2022-08-17T19:26:01.504Z,23.32
2022-08-17T19:28:48.597Z,23.15
2022-08-17T19:31:34.915Z,22.95
2022-08-17T19:34:01.737Z,22.82
2022-08-17T19:36:50.482Z,22.69
2022-08-17T19:39:38.588Z,22.62
2022-08-17T19:42:18.767Z,22.57
2022-08-17T19:44:54.510Z,22.43
2022-08-17T19:47:56.026Z,22.46
2022-08-17T19:50:45.692Z,22.34
2022-08-17T19:53:54.047Z,22.30
2022-08-17T19:56:47.492Z,22.38
2022-08-17T19:59:41.380Z,22.22
2022-08-17T20:02:45.627Z,22.06
2022-08-17T20:05:15.146Z,21.94
2022-08-17T20:07:54.372Z,21.99
2022-08-17T20:10:34.273Z,21.76
2022-08-17T20:13:07.610Z,21.94
2022-08-17T20:15:37.708Z,21.90
2022-08-17T20:18:10.710Z,21.84
2022-08-17T20:20:48.768Z,21.84
2022-08-17T20:23:50.110Z,21.59
2022-08-17T20:26:37.120Z,21.64
2022-08-17T20:29:08.321Z,21.51
2022-08-17T20:31:56.444Z,21.48
2022-08-17T20:34:33.644Z,21.34
2022-08-17T20:37:06.156Z,21.19
2022-08-17T20:39:38.312Z,21.08
2022-08-17T20:42:27.872Z,20.88
2022-08-17T20:45:21.148Z,20.86
2022-08-17T20:48:07.773Z,20.86
2022-08-17T20:50:46.888Z,20.74
2022-08-17T20:53:55.856Z,20.64
2022-08-17T20:56:44.127Z,20.65
2022-08-17T20:59:25.784Z,20.53
2022-08-17T21:02:18.067Z,20.34
2022-08-17T21:05:00.776Z,20.33
2022-08-17T21:07:50.650Z,20.14
2022-08-17T21:10:30.262Z,20.04
2022-08-17T21:13:13.477Z,19.99
2022-08-17T21:15:48.507Z,19.96
2022-08-17T21:18:38.801Z,19.89
2022-08-17T21:21:38.003Z,19.79
2022-08-17T21:24:25.587Z,20.03
2022-08-17T21:27:05.945Z,20.06
2022-08-17T21:29:34.040Z,20.08
2022-08-17T21:32:06.529Z,19.97
2022-08-17T21:34:44.934Z,19.85
2022-08-17T21:37:20.494Z,19.70
2022-08-17T21:39:52.679Z,19.60
2022-08-17T21:42:26.592Z,19.55
2022-08-17T21:44:59.602Z,19.51
2022-08-17T21:47:29.244Z,19.52
2022-08-17T21:50:13.267Z,19.39
2022-08-17T21:52:40.562Z,19.38
2022-08-17T21:55:07.812Z,19.25
2022-08-17T21:57:53.023Z,19.18
2022-08-17T22:00:33.652Z,19.04
2022-08-17T22:03:03.306Z,19.09
2022-08-17T22:05:32.832Z,18.94
2022-08-17T22:08:08.767Z,18.89
2022-08-17T22:10:44.387Z,18.90
2022-08-17T22:13:24.637Z,18.74
2022-08-17T22:16:28.957Z,18.82
2022-08-17T22:18:58.795Z,18.81
2022-08-17T22:21:27.228Z,18.90
2022-08-17T22:24:06.695Z,18.83
2022-08-17T22:27:01.348Z,18.92
2022-08-17T22:29:43.655Z,18.78
2022-08-17T22:32:29.358Z,18.56
2022-08-17T22:35:34.959Z,18.54
2022-08-17T22:38:19.630Z,18.42
2022-08-17T22:40:49.754Z,18.40
2022-08-17T22:43:21.236Z,18.55
2022-08-17T22:45:56.036Z,18.35
2022-08-17T22:48:27.615Z,18.38
2022-08-17T22:51:12.566Z,18.27
2022-08-17T22:54:05.743Z,18.28
2022-08-17T22:56:51.153Z,18.18
2022-08-17T22:59:43.957Z,17.99
2022-08-17T23:02:14.761Z,17.93
2022-08-17T23:04:45.066Z,18.06
2022-08-17T23:07:11.608Z,17.99
2022-08-17T23:09:39.368Z,17.96
2022-08-17T23:12:10.538Z,18.09
2022-08-17T23:14:42.397Z,17.84
2022-08-17T23:17:08.928Z,17.75
2022-08-17T23:19:35.503Z,17.84
2022-08-17T23:22:04.831Z,17.82
2022-08-17T23:24:35.753Z,17.71
2022-08-17T23:27:07.311Z,17.62
2022-08-17T23:29:34.940Z,17.60
2022-08-17T23:32:04.732Z,17.53
2022-08-17T23:34:31.236Z,17.45
2022-08-17T23:36:57.719Z,17.51
2022-08-17T23:39:28.573Z,17.43
2022-08-17T23:42:00.269Z,17.29
2022-08-17T23:44:27.278Z,17.22
2022-08-17T23:46:54.479Z,17.25
2022-08-17T23:49:20.985Z,17.07
2022-08-17T23:51:48.820Z,17.16
2022-08-17T23:54:43.750Z,17.23
2022-08-17T23:57:12.705Z,17.24
2022-08-17T23:59:39.761Z,17.35
